Terminal Aerodrome Forecast
Issued by NWS Cleveland, OH

Home | Current Version | Previous Version | Text Only | Print | Product List | Glossary On
Versions: 1 2 3 4 5 6 7 8 9 10 11 12 13 14
000
FTUS41 KCLE 212322
TAFTOL
TAF
KTOL 212322Z 2200/2224 VRB04KT P6SM FEW060
     FM220600 VRB03KT P6SM VCTS SCT200CB
     FM220800 16004KT P6SM -SHRA BKN050
      TEMPO 2208/2210 4SM TS OVC030CB
     FM221200 22007KT 5SM -SHRA BR VCTS OVC030CB
     FM221700 29011KT P6SM BKN040=

USA.gov is the U.S. government's official web portal to all federal, state and local government web resources and services.